Time;durP1;ratioP1;P1;durP2;ratioP2;P2;SDS_P1;SDS_P2;PMS_P1;PMS_P2;Temp;Humidity;BMP_temperature;BMP_pressure;BME280_temperature;BME280_humidity;BME280_pressure;Samples;Min_cycle;Max_cycle;Signal;HPM_P1;HPM_P2
2021/06/21 00:00:14;;;;;;;6.40;3.00;;;;;;;15.14;72.85;100968.78;682841;29;955;-67
2021/06/21 00:00:34;;;;;;;6.05;2.95;;;;;;;15.08;72.63;100974.44;682634;29;921;-67
2021/06/21 00:00:55;;;;;;;4.47;2.72;;;;;;;15.08;72.91;100971.78;682822;29;873;-67
2021/06/21 00:01:15;;;;;;;4.97;2.83;;;;;;;15.11;72.63;100968.94;682669;29;935;-67
2021/06/21 00:01:35;;;;;;;6.28;2.80;;;;;;;15.15;72.34;100964.31;682796;29;924;-67
2021/06/21 00:01:55;;;;;;;6.67;3.20;;;;;;;15.11;72.89;100968.94;682761;29;887;-67
2021/06/21 00:02:16;;;;;;;5.80;3.30;;;;;;;15.11;72.46;100968.94;682695;29;853;-67
2021/06/21 00:02:37;;;;;;;4.90;3.17;;;;;;;15.11;72.55;100971.59;679869;29;1708;-67
2021/06/21 00:02:57;;;;;;;6.03;2.92;;;;;;;14.99;72.57;100969.66;679649;29;951;-66
2021/06/21 00:03:18;;;;;;;6.50;2.92;;;;;;;15.01;72.76;100970.44;679800;29;777;-67
2021/06/21 00:03:38;;;;;;;5.27;2.90;;;;;;;15.03;72.84;100965.88;679924;29;1073;-67
2021/06/21 00:03:59;;;;;;;5.30;3.10;;;;;;;15.00;72.78;100968.69;679887;29;879;-67
2021/06/21 00:04:19;;;;;;;5.88;2.83;;;;;;;15.01;72.72;100969.56;680215;29;1014;-66
2021/06/21 00:04:39;;;;;;;5.90;2.90;;;;;;;15.03;72.54;100978.28;682712;29;955;-67
2021/06/21 00:05:00;;;;;;;5.13;3.03;;;;;;;15.07;72.59;100966.53;682755;29;860;-68
2021/06/21 00:05:20;;;;;;;4.90;2.80;;;;;;;15.09;72.67;100969.97;682737;29;1036;-68
2021/06/21 00:05:41;;;;;;;5.03;2.88;;;;;;;15.08;72.87;100977.09;682806;29;1038;-68
2021/06/21 00:06:01;;;;;;;6.57;3.07;;;;;;;15.10;72.58;100969.88;682705;29;876;-68
2021/06/21 00:06:21;;;;;;;6.57;3.00;;;;;;;15.13;72.81;100969.69;682830;29;829;-68
2021/06/21 00:06:41;;;;;;;5.35;2.70;;;;;;;15.14;72.34;100974.06;682593;29;988;-68
2021/06/21 00:07:02;;;;;;;5.33;2.70;;;;;;;15.10;72.77;100971.66;682793;29;984;-68
2021/06/21 00:07:22;;;;;;;5.87;2.77;;;;;;;15.11;72.74;100968.09;682716;29;988;-68
2021/06/21 00:07:43;;;;;;;5.43;2.80;;;;;;;15.10;72.70;100969.88;682736;29;845;-68
2021/06/21 00:08:03;;;;;;;4.57;2.60;;;;;;;15.12;72.41;100970.66;682769;29;884;-68
2021/06/21 00:08:24;;;;;;;5.70;2.67;;;;;;;15.09;72.84;100967.31;682753;29;984;-67
2021/06/21 00:08:44;;;;;;;5.40;2.80;;;;;;;15.07;72.32;100978.03;682638;29;920;-67
2021/06/21 00:09:05;;;;;;;5.22;2.97;;;;;;;15.08;72.62;100970.94;682841;29;801;-67
2021/06/21 00:09:25;;;;;;;5.00;3.00;;;;;;;15.06;72.72;100971.00;682643;29;1364;-67
2021/06/21 00:09:46;;;;;;;5.27;3.07;;;;;;;15.03;72.42;100978.28;682752;29;873;-67
2021/06/21 00:10:08;;;;;;;5.22;2.83;;;;;;;15.03;72.50;100975.63;682732;29;1977;-67
2021/06/21 00:10:28;;;;;;;6.22;2.97;;;;;;;15.10;72.18;100964.56;682763;29;833;-67
2021/06/21 00:10:48;;;;;;;6.57;3.00;;;;;;;15.14;72.20;100971.44;682771;29;868;-67
2021/06/21 00:11:09;;;;;;;5.93;2.73;;;;;;;15.08;72.45;100969.13;682741;29;979;-67
2021/06/21 00:11:30;;;;;;;5.78;3.08;;;;;;;15.06;72.04;100965.69;682620;29;880;-67
2021/06/21 00:11:50;;;;;;;6.15;3.20;;;;;;;15.04;71.88;100972.91;682885;29;843;-67
2021/06/21 00:12:13;;;;;;;5.27;3.00;;;;;;;15.04;72.09;100969.41;682772;29;1042;-67
2021/06/21 00:12:34;;;;;;;4.22;2.70;;;;;;;15.03;71.99;100972.97;682831;29;825;-67
2021/06/21 00:12:54;;;;;;;5.10;2.97;;;;;;;15.03;72.08;100967.66;682297;29;919;-67
2021/06/21 00:13:14;;;;;;;5.10;3.10;;;;;;;14.99;71.93;100967.00;682724;29;888;-68
2021/06/21 00:13:35;;;;;;;5.63;2.93;;;;;;;15.00;72.29;100970.50;682769;29;884;-67
2021/06/21 00:13:55;;;;;;;5.83;2.90;;;;;;;14.94;72.06;100971.72;682790;29;1058;-68
2021/06/21 00:14:16;;;;;;;4.95;2.90;;;;;;;14.94;72.32;100967.28;682694;29;841;-67
2021/06/21 00:14:37;;;;;;;6.35;2.90;;;;;;;14.92;72.18;100971.81;682812;29;809;-67
2021/06/21 00:14:57;;;;;;;6.65;2.83;;;;;;;14.92;72.19;100966.50;682592;29;1038;-67
2021/06/21 00:15:23;;;;;;;4.83;2.90;;;;;;;14.98;72.33;100975.91;682758;29;908;-67
2021/06/21 00:15:44;;;;;;;5.78;2.85;;;;;;;14.93;72.26;100968.22;682766;29;812;-67
2021/06/21 00:16:04;;;;;;;6.03;3.00;;;;;;;14.89;72.01;100971.13;682818;29;884;-67
2021/06/21 00:16:26;;;;;;;6.00;2.92;;;;;;;14.88;72.05;100966.78;682783;29;995;-67
2021/06/21 00:16:46;;;;;;;5.97;2.83;;;;;;;14.85;71.95;100966.94;682798;29;890;-67
2021/06/21 00:17:07;;;;;;;6.10;2.90;;;;;;;14.86;72.25;100974.81;682727;29;925;-67
2021/06/21 00:17:27;;;;;;;5.88;2.80;;;;;;;14.84;72.04;100974.06;682769;29;1074;-67
2021/06/21 00:17:49;;;;;;;6.67;3.07;;;;;;;14.89;72.37;100963.16;682733;29;837;-67
2021/06/21 00:18:13;;;;;;;5.78;2.90;;;;;;;14.94;71.93;100969.94;682766;29;971;-67
2021/06/21 00:18:34;;;;;;;6.40;3.03;;;;;;;14.95;72.00;100968.97;679829;29;962;-67
2021/06/21 00:18:54;;;;;;;6.07;2.90;;;;;;;14.90;72.34;100963.09;680087;29;820;-67
2021/06/21 00:19:14;;;;;;;5.77;2.77;;;;;;;14.98;72.29;100972.41;679772;29;1207;-67
2021/06/21 00:19:35;;;;;;;5.30;3.00;;;;;;;14.99;71.86;100967.00;679848;29;1023;-67
2021/06/21 00:19:55;;;;;;;6.37;2.93;;;;;;;15.02;72.00;100980.09;680019;29;1031;-67
2021/06/21 00:20:17;;;;;;;6.10;3.00;;;;;;;15.01;71.67;100967.78;680015;29;920;-67
2021/06/21 00:20:37;;;;;;;4.47;2.63;;;;;;;15.03;71.38;100976.47;682727;29;860;-67
2021/06/21 00:20:58;;;;;;;4.53;2.83;;;;;;;15.03;71.84;100973.81;682838;29;845;-67
2021/06/21 00:21:18;;;;;;;5.20;2.70;;;;;;;15.00;71.64;100981.13;682595;29;969;-67
2021/06/21 00:21:39;;;;;;;5.95;2.72;;;;;;;14.95;71.44;100970.78;682756;29;943;-67
2021/06/21 00:22:00;;;;;;;5.97;2.80;;;;;;;15.00;71.46;100975.81;682869;29;911;-68
2021/06/21 00:22:20;;;;;;;6.38;2.70;;;;;;;15.00;71.60;100978.47;682632;29;1162;-67
2021/06/21 00:22:42;;;;;;;5.50;2.80;;;;;;;15.00;71.61;100976.66;682562;29;766;-67
2021/06/21 00:23:03;;;;;;;4.53;2.70;;;;;;;15.00;71.84;100971.34;682698;29;823;-67
2021/06/21 00:23:23;;;;;;;4.80;2.67;;;;;;;14.91;72.25;100971.91;682630;29;852;-67
2021/06/21 00:23:43;;;;;;;4.20;2.50;;;;;;;14.93;71.59;100970.00;682707;29;1098;-67
2021/06/21 00:24:04;;;;;;;4.77;2.57;;;;;;;14.94;71.84;100974.38;682707;29;1097;-68
2021/06/21 00:24:24;;;;;;;4.82;2.70;;;;;;;14.94;71.49;100971.72;682763;29;875;-67
2021/06/21 00:24:46;;;;;;;5.10;2.60;;;;;;;14.95;71.12;100971.63;682816;29;832;-67
2021/06/21 00:25:07;;;;;;;6.47;2.85;;;;;;;14.95;71.13;100973.44;682784;29;849;-67
2021/06/21 00:25:27;;;;;;;5.97;2.80;;;;;;;14.90;71.69;100973.72;682653;29;1049;-67
2021/06/21 00:25:48;;;;;;;6.00;2.87;;;;;;;14.92;71.27;100982.41;682797;29;1011;-67
2021/06/21 00:26:08;;;;;;;5.60;2.70;;;;;;;14.93;71.25;100981.50;682776;29;837;-66
2021/06/21 00:26:29;;;;;;;4.90;2.60;;;;;;;14.93;71.30;100975.31;682724;29;947;-67
2021/06/21 00:26:50;;;;;;;5.30;2.70;;;;;;;14.92;71.23;100971.81;682697;29;972;-66
2021/06/21 00:27:11;;;;;;;4.63;2.50;;;;;;;14.95;71.71;100973.44;682878;29;975;-67
2021/06/21 00:27:34;;;;;;;4.75;2.50;;;;;;;14.90;71.64;100971.06;682690;29;813;-66
2021/06/21 00:27:54;;;;;;;4.75;2.40;;;;;;;14.87;71.83;100971.22;682726;29;863;-67
2021/06/21 00:28:15;;;;;;;4.20;2.30;;;;;;;14.88;72.11;100974.72;682816;29;802;-67
2021/06/21 00:28:36;;;;;;;4.50;2.40;;;;;;;14.87;71.32;100975.69;682733;29;892;-67
2021/06/21 00:28:56;;;;;;;4.63;2.40;;;;;;;14.78;71.05;100976.19;682842;29;899;-67
2021/06/21 00:29:17;;;;;;;4.80;2.35;;;;;;;14.78;71.47;100978.84;682786;29;1324;-67
2021/06/21 00:29:38;;;;;;;4.25;2.50;;;;;;;14.77;71.48;100970.03;682568;29;825;-67
2021/06/21 00:29:58;;;;;;;4.03;2.60;;;;;;;14.79;71.17;100980.56;682736;29;1975;-67
2021/06/21 00:30:20;;;;;;;4.40;2.60;;;;;;;14.81;71.60;100981.34;682883;29;928;-68
2021/06/21 00:30:40;;;;;;;4.63;2.42;;;;;;;14.81;71.28;100970.72;682736;29;916;-68
2021/06/21 00:31:00;;;;;;;4.70;2.40;;;;;;;14.72;71.34;100978.25;682835;29;841;-67
2021/06/21 00:31:21;;;;;;;3.63;2.20;;;;;;;14.75;71.49;100976.38;682715;29;861;-68
2021/06/21 00:31:41;;;;;;;4.30;2.20;;;;;;;14.77;71.32;100978.00;682604;29;952;-67
2021/06/21 00:32:02;;;;;;;6.17;2.40;;;;;;;14.80;71.53;100976.97;682826;29;888;-67
2021/06/21 00:32:22;;;;;;;5.60;2.45;;;;;;;14.78;70.83;100981.50;682772;29;813;-67
2021/06/21 00:32:44;;;;;;;5.13;2.50;;;;;;;14.80;70.87;100980.47;682490;29;1012;-67
2021/06/21 00:33:04;;;;;;;4.60;2.42;;;;;;;14.83;70.94;100979.44;682703;29;983;-68
2021/06/21 00:33:25;;;;;;;4.30;2.47;;;;;;;14.85;70.80;100980.22;682720;29;912;-67
2021/06/21 00:33:45;;;;;;;4.40;2.50;;;;;;;14.85;70.98;100982.88;682653;29;880;-66
2021/06/21 00:34:05;;;;;;;4.43;2.30;;;;;;;14.84;71.09;100981.16;682744;29;875;-68
2021/06/21 00:34:26;;;;;;;4.50;2.30;;;;;;;14.87;71.00;100987.16;682811;29;798;-68
2021/06/21 00:34:46;;;;;;;4.43;2.37;;;;;;;14.83;70.77;100985.63;682731;29;1064;-68
2021/06/21 00:35:09;;;;;;;4.93;2.38;;;;;;;14.83;70.55;100987.38;682687;29;939;-68
2021/06/21 00:35:29;;;;;;;4.95;2.50;;;;;;;14.83;70.37;100990.03;682743;29;944;-67
2021/06/21 00:35:49;;;;;;;4.00;2.30;;;;;;;14.78;70.80;100986.81;682608;29;987;-67
2021/06/21 00:36:10;;;;;;;3.90;2.30;;;;;;;14.82;70.81;100996.31;682709;29;785;-67
2021/06/21 00:36:30;;;;;;;4.23;2.40;;;;;;;14.83;70.36;100985.63;682834;29;829;-67
2021/06/21 00:36:50;;;;;;;5.13;2.40;;;;;;;14.83;70.47;100982.09;682643;29;983;-67
2021/06/21 00:37:11;;;;;;;4.17;2.30;;;;;;;14.86;70.76;100981.91;682754;29;919;-67
2021/06/21 00:37:31;;;;;;;5.30;2.45;;;;;;;14.88;70.65;100995.97;682727;29;1030;-67
2021/06/21 00:37:52;;;;;;;4.93;2.30;;;;;;;14.91;70.80;100993.13;682582;29;1007;-67
2021/06/21 00:38:12;;;;;;;4.55;2.28;;;;;;;14.93;70.53;100991.22;682755;29;928;-68
2021/06/21 00:38:32;;;;;;;4.67;2.40;;;;;;;14.96;70.68;100993.72;682821;29;916;-67
2021/06/21 00:38:53;;;;;;;3.97;2.30;;;;;;;14.93;70.70;100986.81;682687;29;829;-68
2021/06/21 00:39:13;;;;;;;3.97;2.30;;;;;;;14.90;70.50;100986.97;682730;29;1209;-68
2021/06/21 00:39:33;;;;;;;3.67;2.30;;;;;;;14.93;70.52;100991.22;682671;29;947;-68
2021/06/21 00:39:53;;;;;;;3.80;2.30;;;;;;;14.93;70.37;100986.81;682680;29;892;-67
2021/06/21 00:40:15;;;;;;;4.22;2.55;;;;;;;14.93;70.40;100996.53;682783;29;904;-68
2021/06/21 00:40:38;;;;;;;3.85;2.40;;;;;;;14.90;70.37;100991.41;682628;29;1015;-68
2021/06/21 00:40:58;;;;;;;4.18;2.40;;;;;;;14.93;70.52;100989.47;682814;29;874;-69
2021/06/21 00:41:19;;;;;;;4.30;2.45;;;;;;;14.98;70.46;100988.34;682772;29;808;-68
2021/06/21 00:41:39;;;;;;;4.97;2.60;;;;;;;14.99;70.30;100990.88;682593;29;976;-68
2021/06/21 00:42:00;;;;;;;4.88;2.40;;;;;;;14.98;70.45;100991.84;682704;29;848;-68
2021/06/21 00:42:21;;;;;;;4.60;2.30;;;;;;;14.95;70.72;100990.22;682616;29;1074;-67
2021/06/21 00:42:45;;;;;;;4.22;2.40;;;;;;;14.96;70.74;100993.72;682398;29;853;-68
2021/06/21 00:43:06;;;;;;;4.47;2.30;;;;;;;15.00;70.23;100995.25;682610;29;1512;-67
2021/06/21 00:43:26;;;;;;;3.97;2.30;;;;;;;14.97;70.38;100982.16;682702;29;861;-68
2021/06/21 00:43:46;;;;;;;3.97;2.30;;;;;;;14.89;70.29;100984.38;682658;29;910;-68
2021/06/21 00:44:08;;;;;;;4.73;2.67;;;;;;;14.87;70.55;100991.59;682761;29;852;-67
2021/06/21 00:44:29;;;;;;;5.03;2.58;;;;;;;14.76;71.00;100989.53;682738;29;996;-68
2021/06/21 00:44:49;;;;;;;5.07;2.50;;;;;;;14.84;70.65;100986.47;682771;29;884;-67
2021/06/21 00:45:11;;;;;;;4.43;2.50;;;;;;;14.84;70.99;100991.78;682691;29;875;-68
2021/06/21 00:45:32;;;;;;;4.43;2.55;;;;;;;14.83;71.07;100984.72;682660;29;1025;-67
2021/06/21 00:45:53;;;;;;;5.18;2.80;;;;;;;14.84;71.23;100986.47;682704;29;1025;-68
2021/06/21 00:46:13;;;;;;;5.53;2.75;;;;;;;14.84;71.12;100989.97;682575;29;1108;-68
2021/06/21 00:46:33;;;;;;;5.67;2.43;;;;;;;14.85;71.24;100985.50;682780;29;813;-68
2021/06/21 00:46:53;;;;;;;5.10;2.40;;;;;;;14.84;71.02;100983.81;682740;29;864;-67
2021/06/21 00:47:14;;;;;;;5.20;2.40;;;;;;;14.81;71.06;100986.63;682767;29;901;-68
2021/06/21 00:47:34;;;;;;;5.40;2.60;;;;;;;14.79;71.25;100991.16;682733;29;814;-68
2021/06/21 00:47:55;;;;;;;5.65;2.50;;;;;;;14.82;71.03;100991.00;682615;29;857;-69
2021/06/21 00:48:15;;;;;;;4.73;2.43;;;;;;;14.82;70.85;100991.00;682709;29;896;-67
2021/06/21 00:48:37;;;;;;;4.60;2.40;;;;;;;14.72;71.19;100999.47;682757;29;935;-67
2021/06/21 00:48:57;;;;;;;4.85;2.50;;;;;;;14.70;71.25;100998.72;682685;29;864;-68
2021/06/21 00:49:18;;;;;;;3.77;2.40;;;;;;;14.67;71.38;100990.94;682624;29;1293;-67
2021/06/21 00:49:38;;;;;;;4.37;2.57;;;;;;;14.69;71.18;100994.38;682690;29;856;-67
2021/06/21 00:49:58;;;;;;;5.10;3.20;;;;;;;14.74;71.57;100993.25;682580;29;1899;-67
2021/06/21 00:50:19;;;;;;;5.03;3.03;;;;;;;14.76;71.19;100994.84;682734;29;1235;-67
2021/06/21 00:50:40;;;;;;;4.05;2.50;;;;;;;14.78;71.90;101000.06;682651;29;868;-67
2021/06/21 00:51:00;;;;;;;4.82;2.40;;;;;;;14.80;71.59;100996.41;682721;29;833;-67
2021/06/21 00:51:21;;;;;;;5.23;2.70;;;;;;;14.80;71.68;100995.56;682691;29;928;-67
2021/06/21 00:51:42;;;;;;;4.22;2.60;;;;;;;14.79;71.41;100993.81;682686;29;1038;-67
2021/06/21 00:52:03;;;;;;;4.93;2.78;;;;;;;14.76;71.58;100999.28;682706;29;896;-67
2021/06/21 00:52:23;;;;;;;4.57;2.97;;;;;;;14.78;71.61;100992.13;679733;29;861;-67
2021/06/21 00:52:44;;;;;;;4.13;2.63;;;;;;;14.77;71.55;100999.22;679552;29;1023;-67
2021/06/21 00:53:04;;;;;;;5.32;3.13;;;;;;;14.76;71.60;101000.16;679762;29;991;-67
2021/06/21 00:53:26;;;;;;;5.70;3.10;;;;;;;14.81;71.38;100994.59;679839;29;813;-67
2021/06/21 00:53:47;;;;;;;5.72;2.90;;;;;;;14.81;71.83;100991.94;679887;29;891;-67
2021/06/21 00:54:07;;;;;;;5.72;2.80;;;;;;;14.83;71.50;100995.34;680421;29;841;-67
2021/06/21 00:54:28;;;;;;;5.38;2.90;;;;;;;14.85;71.50;100994.31;682795;29;881;-67
2021/06/21 00:54:59;;;;;;;5.67;2.90;;;;;;;14.86;71.24;100989.88;682851;29;1014;-67
2021/06/21 00:55:21;;;;;;;5.63;2.83;;;;;;;14.76;71.38;100994.00;682879;29;868;-67
2021/06/21 00:55:42;;;;;;;5.57;2.85;;;;;;;14.77;71.22;100995.72;682755;29;956;-67
2021/06/21 00:56:03;;;;;;;5.43;2.80;;;;;;;14.78;71.78;100992.13;682745;29;868;-67
2021/06/21 00:56:24;;;;;;;5.37;2.80;;;;;;;14.77;71.14;100998.38;682463;29;1271;-67
2021/06/21 00:56:44;;;;;;;5.50;2.90;;;;;;;14.76;71.15;100996.66;682704;29;901;-67
2021/06/21 00:57:05;;;;;;;4.60;2.83;;;;;;;14.77;71.37;100995.72;682609;29;875;-66
2021/06/21 00:57:30;;;;;;;5.30;2.70;;;;;;;14.79;71.31;100989.38;682908;29;964;-67
2021/06/21 00:57:50;;;;;;;5.50;2.97;;;;;;;14.80;71.85;100988.44;684066;29;1149;-68
2021/06/21 00:58:11;;;;;;;5.80;3.03;;;;;;;14.82;71.74;100991.84;684053;29;1031;-67
2021/06/21 00:58:31;;;;;;;5.63;3.00;;;;;;;14.85;71.62;100990.81;684337;29;873;-67
2021/06/21 00:59:00;;;;;;;5.20;2.80;;;;;;;14.82;71.34;100983.88;684271;29;833;-68
2021/06/21 00:59:20;;;;;;;4.85;3.20;;;;;;;14.78;71.37;100986.81;684003;29;900;-68
2021/06/21 00:59:41;;;;;;;5.27;2.90;;;;;;;14.75;71.32;100979.88;684646;28;873;-67
2021/06/21 01:00:06;;;;;;;6.07;2.95;;;;;;;14.79;71.34;100989.38;684870;29;1043;-67
2021/06/21 01:00:27;;;;;;;4.97;2.90;;;;;;;14.75;71.56;100981.69;683567;29;871;-68
2021/06/21 01:00:48;;;;;;;5.00;2.95;;;;;;;14.74;71.82;100985.28;683028;29;995;-67
2021/06/21 01:01:08;;;;;;;5.00;3.03;;;;;;;14.72;72.02;100980.91;683190;29;793;-67
2021/06/21 01:01:29;;;;;;;4.97;2.90;;;;;;;14.72;72.05;100978.25;683107;29;928;-68
2021/06/21 01:01:49;;;;;;;5.17;3.00;;;;;;;14.75;72.16;100986.97;683133;29;979;-68
2021/06/21 01:02:11;;;;;;;5.78;2.90;;;;;;;14.72;72.03;100994.16;683084;29;964;-68
2021/06/21 01:02:31;;;;;;;5.05;2.90;;;;;;;14.76;72.09;100983.38;683165;29;917;-68
2021/06/21 01:02:52;;;;;;;6.13;3.00;;;;;;;14.80;72.17;100982.28;682671;29;1151;-69
2021/06/21 01:03:12;;;;;;;4.83;3.00;;;;;;;14.81;71.89;100986.63;683242;29;955;-67
2021/06/21 01:03:32;;;;;;;5.03;3.10;;;;;;;14.81;72.00;100986.63;683117;29;1008;-66
2021/06/21 01:03:53;;;;;;;4.60;2.90;;;;;;;14.80;71.71;100980.47;683168;29;814;-67
2021/06/21 01:04:13;;;;;;;5.23;3.03;;;;;;;14.81;71.73;100978.69;682996;29;2039;-66
2021/06/21 01:04:33;;;;;;;5.40;3.08;;;;;;;14.81;71.94;100981.34;683281;29;841;-67
2021/06/21 01:04:55;;;;;;;5.30;3.27;;;;;;;14.87;71.68;100991.59;683120;29;1034;-67
2021/06/21 01:05:18;;;;;;;5.25;3.08;;;;;;;14.89;71.58;100989.69;683150;29;896;-67
2021/06/21 01:05:39;;;;;;;5.60;3.15;;;;;;;14.89;71.64;100987.03;683147;29;813;-67
2021/06/21 01:05:59;;;;;;;5.65;3.10;;;;;;;14.89;71.47;101000.31;683175;29;914;-66
2021/06/21 01:06:20;;;;;;;5.60;3.17;;;;;;;14.89;71.84;100987.03;683073;29;853;-67
2021/06/21 01:06:40;;;;;;;4.80;3.00;;;;;;;14.84;71.66;100997.09;683226;29;999;-67
2021/06/21 01:07:00;;;;;;;4.70;3.10;;;;;;;14.85;71.67;100983.72;683055;29;807;-67
2021/06/21 01:07:22;;;;;;;4.72;3.00;;;;;;;14.84;71.58;100992.63;683243;29;872;-68
2021/06/21 01:07:42;;;;;;;5.63;3.00;;;;;;;14.84;72.01;100986.47;683188;29;892;-68
2021/06/21 01:08:05;;;;;;;5.23;3.00;;;;;;;14.82;71.69;100994.50;683175;29;785;-68
2021/06/21 01:08:25;;;;;;;6.25;2.90;;;;;;;14.86;71.39;100990.72;683229;29;943;-68
2021/06/21 01:08:47;;;;;;;5.93;3.10;;;;;;;14.82;71.29;100989.19;683150;29;825;-68
2021/06/21 01:09:08;;;;;;;5.30;2.83;;;;;;;14.88;71.41;100993.31;683056;29;1221;-67
2021/06/21 01:09:28;;;;;;;5.23;2.90;;;;;;;14.88;71.41;100988.84;683226;29;944;-68
2021/06/21 01:09:53;;;;;;;5.10;2.80;;;;;;;14.86;71.45;100987.22;683100;29;868;-68
2021/06/21 01:10:16;;;;;;;5.82;3.10;;;;;;;14.89;71.49;100998.50;683071;29;1906;-67
2021/06/21 01:10:39;;;;;;;5.88;2.95;;;;;;;14.90;71.52;100991.41;683119;29;983;-68
2021/06/21 01:11:00;;;;;;;5.18;2.90;;;;;;;14.90;71.46;100986.09;683241;29;971;-68
2021/06/21 01:11:20;;;;;;;5.45;2.80;;;;;;;14.82;71.69;100988.34;683039;29;1069;-67
2021/06/21 01:11:57;;;;;;;4.83;2.80;;;;;;;14.83;71.72;100984.72;683177;29;792;-67
2021/06/21 01:12:37;;;;;;;5.63;2.80;;;;;;;14.85;72.04;100982.88;683121;29;995;-67
2021/06/21 01:13:24;;;;;;;4.70;3.00;;;;;;;14.89;71.71;100982.59;682864;29;1014;-67
2021/06/21 01:14:08;;;;;;;5.00;3.10;;;;;;;14.78;71.80;100984.16;683232;29;904;-67
2021/06/21 01:14:43;;;;;;;5.82;3.03;;;;;;;14.81;71.96;100981.34;683109;29;908;-67
2021/06/21 01:15:07;;;;;;;4.72;3.10;;;;;;;14.78;72.06;100981.50;683239;29;1077;-67
2021/06/21 01:15:32;;;;;;;5.10;2.90;;;;;;;14.78;72.38;100976.19;682933;29;1100;-67
2021/06/21 01:16:10;;;;;;;5.22;3.00;;;;;;;14.78;72.04;100984.16;683213;29;915;-67
2021/06/21 01:16:39;;;;;;;5.00;3.20;;;;;;;14.76;72.30;100988.69;683205;29;982;-67
2021/06/21 01:17:14;;;;;;;4.95;3.10;;;;;;;14.74;72.17;100979.97;683111;29;931;-67
2021/06/21 01:17:41;;;;;;;4.95;2.90;;;;;;;14.73;71.88;100989.75;683129;29;904;-68
2021/06/21 01:18:08;;;;;;;5.22;3.10;;;;;;;14.68;72.28;100986.47;680242;29;899;-67
2021/06/21 01:18:33;;;;;;;6.22;3.30;;;;;;;14.69;72.04;100975.78;680262;29;1016;-67
2021/06/21 01:19:22;;;;;;;5.55;3.22;;;;;;;14.71;72.31;100981.84;680304;29;868;-67
2021/06/21 01:20:20;;;;;;;5.10;2.97;;;;;;;14.72;72.16;100983.56;680356;29;873;-67
2021/06/21 01:21:02;;;;;;;5.13;2.85;;;;;;;14.79;71.96;100985.84;683013;29;907;-67
2021/06/21 01:21:50;;;;;;;6.20;3.17;;;;;;;14.78;71.89;100982.34;683204;29;852;-67
2021/06/21 01:23:03;;;;;;;7.00;3.30;;;;;;;14.77;72.42;100977.16;682982;29;996;-67
2021/06/21 01:24:00;;;;;;;5.30;3.20;;;;;;;14.77;72.49;100985.13;672243;29;1202;-67
2021/06/21 01:24:39;;;;;;;4.82;3.10;;;;;;;14.84;72.29;100986.47;683050;29;881;-68
2021/06/21 01:25:02;;;;;;;5.65;3.10;;;;;;;14.79;72.27;100993.81;683089;29;877;-68
2021/06/21 01:25:40;;;;;;;5.32;3.50;;;;;;;14.79;72.19;100988.50;683034;29;1959;-67
2021/06/21 01:26:22;;;;;;;5.32;3.40;;;;;;;14.69;72.70;100997.00;683000;29;920;-68
2021/06/21 01:26:51;;;;;;;6.05;3.17;;;;;;;14.72;72.65;100994.16;683040;29;1991;-67
2021/06/21 01:27:27;;;;;;;5.68;3.30;;;;;;;14.68;72.83;100994.44;682998;29;952;-68
2021/06/21 01:27:53;;;;;;;5.07;3.28;;;;;;;14.69;72.96;100990.81;683046;29;894;-67
2021/06/21 01:28:28;;;;;;;6.93;3.50;;;;;;;14.66;72.83;100991.88;683034;29;888;-68
2021/06/21 01:29:21;;;;;;;5.72;3.45;;;;;;;14.66;73.20;100994.53;683121;29;873;-67
2021/06/21 01:30:10;;;;;;;5.75;3.65;;;;;;;14.63;72.88;100989.41;683092;29;915;-67
2021/06/21 01:30:39;;;;;;;5.65;3.30;;;;;;;14.69;73.07;100983.75;683106;29;978;-67
2021/06/21 01:31:14;;;;;;;6.38;4.00;;;;;;;14.75;72.69;100986.97;682994;29;709;-67
2021/06/21 01:32:01;;;;;;;5.70;3.60;;;;;;;14.74;72.91;100985.28;683160;29;857;-67
2021/06/21 01:32:37;;;;;;;6.78;3.60;;;;;;;14.70;72.67;100990.75;683111;29;974;-67
2021/06/21 01:33:01;;;;;;;6.38;3.63;;;;;;;14.77;72.89;100987.75;682686;29;924;-67
2021/06/21 01:33:23;;;;;;;6.13;3.67;;;;;;;14.75;72.42;100986.97;683163;29;918;-67
2021/06/21 01:33:46;;;;;;;6.43;3.78;;;;;;;14.75;72.74;100993.13;683025;29;964;-67
2021/06/21 01:34:07;;;;;;;6.65;3.60;;;;;;;14.72;72.73;100988.84;682999;29;892;-68
2021/06/21 01:34:29;;;;;;;5.83;3.47;;;;;;;14.75;72.48;100986.97;683017;29;988;-67
2021/06/21 01:34:55;;;;;;;6.38;3.50;;;;;;;14.75;72.55;100992.28;683161;29;1039;-67
2021/06/21 01:35:45;;;;;;;6.55;3.50;;;;;;;14.69;73.00;100985.53;683128;29;873;-67
2021/06/21 01:36:13;;;;;;;7.05;3.70;;;;;;;14.74;73.03;100990.59;682954;29;1019;-67
2021/06/21 01:36:34;;;;;;;7.00;3.47;;;;;;;14.74;73.32;100985.28;682991;29;987;-66
2021/06/21 01:36:58;;;;;;;6.40;3.73;;;;;;;14.79;72.77;100989.38;683136;29;1050;-66
2021/06/21 01:37:22;;;;;;;5.30;3.80;;;;;;;14.75;73.16;100982.53;682936;29;1023;-66
2021/06/21 01:37:45;;;;;;;5.60;3.58;;;;;;;14.77;72.85;100979.81;683144;29;1004;-66
2021/06/21 01:38:12;;;;;;;6.22;3.60;;;;;;;14.74;72.90;100982.63;683044;29;1050;-67
2021/06/21 01:38:46;;;;;;;6.72;3.80;;;;;;;14.74;73.12;100983.47;682912;29;989;-66
2021/06/21 01:39:06;;;;;;;6.88;3.50;;;;;;;14.77;73.04;100979.81;682911;29;1317;-66
2021/06/21 01:39:34;;;;;;;7.60;3.60;;;;;;;14.77;72.73;100983.31;683077;29;920;-67
2021/06/21 01:40:00;;;;;;;5.65;3.50;;;;;;;14.77;72.89;100980.66;682043;29;1511;-67
2021/06/21 01:40:22;;;;;;;6.85;3.80;;;;;;;14.69;72.88;100983.75;682953;29;903;-67
2021/06/21 01:40:52;;;;;;;6.15;3.70;;;;;;;14.72;72.78;100982.69;683116;29;927;-67
2021/06/21 01:41:21;;;;;;;6.65;3.90;;;;;;;14.71;72.79;100992.47;682994;29;907;-66
2021/06/21 01:41:44;;;;;;;6.18;3.60;;;;;;;14.71;72.61;100989.81;683106;29;935;-67
2021/06/21 01:42:12;;;;;;;7.00;3.75;;;;;;;14.75;72.77;100986.97;683025;29;924;-67
2021/06/21 01:42:33;;;;;;;5.30;3.60;;;;;;;14.74;73.01;100990.59;683000;29;1039;-67
2021/06/21 01:42:59;;;;;;;6.65;3.78;;;;;;;14.76;72.48;100996.66;682584;29;1065;-67
2021/06/21 01:43:26;;;;;;;5.55;3.70;;;;;;;14.75;72.64;100997.59;683042;29;968;-67
2021/06/21 01:43:49;;;;;;;7.03;4.38;;;;;;;14.74;72.39;100993.25;683063;29;837;-67
2021/06/21 01:44:11;;;;;;;6.25;3.97;;;;;;;14.68;72.13;101000.59;683016;29;864;-67
2021/06/21 01:44:39;;;;;;;5.93;3.78;;;;;;;14.62;72.81;100992.97;682981;29;1001;-66
2021/06/21 01:45:05;;;;;;;6.75;3.83;;;;;;;14.69;72.39;100998.78;683121;29;852;-67
2021/06/21 01:45:28;;;;;;;5.75;3.58;;;;;;;14.68;72.51;101000.59;683079;29;956;-66
2021/06/21 01:45:48;;;;;;;7.10;3.60;;;;;;;14.70;72.59;100996.06;683120;29;980;-67
2021/06/21 01:46:12;;;;;;;7.50;3.90;;;;;;;14.72;72.21;100996.81;682902;29;1004;-67
2021/06/21 01:46:34;;;;;;;6.07;3.53;;;;;;;14.76;72.48;100999.28;682960;29;876;-67
2021/06/21 01:46:57;;;;;;;6.22;3.53;;;;;;;14.70;72.42;100995.22;683056;29;1015;-67
2021/06/21 01:47:21;;;;;;;5.80;3.65;;;;;;;14.69;72.60;100996.13;682973;29;1627;-66
2021/06/21 01:47:45;;;;;;;7.38;3.65;;;;;;;14.68;72.42;100997.94;683103;29;955;-66
2021/06/21 01:48:07;;;;;;;6.97;4.03;;;;;;;14.71;72.63;100992.47;682994;29;1094;-66
2021/06/21 01:48:30;;;;;;;6.18;3.70;;;;;;;14.69;72.76;100983.75;682983;29;1026;-67
2021/06/21 01:49:01;;;;;;;6.15;3.60;;;;;;;14.63;72.97;100996.50;682884;29;1317;-66
2021/06/21 01:49:22;;;;;;;6.03;3.50;;;;;;;14.66;72.87;100983.91;682928;29;932;-66
2021/06/21 01:49:48;;;;;;;6.68;3.70;;;;;;;14.56;72.91;100996.00;683057;29;888;-66
2021/06/21 01:50:10;;;;;;;8.48;4.00;;;;;;;14.53;72.90;100982.91;682916;29;1910;-67
2021/06/21 01:50:30;;;;;;;8.07;3.92;;;;;;;14.56;72.87;100982.72;683006;29;931;-67
2021/06/21 01:50:55;;;;;;;6.97;3.85;;;;;;;14.63;72.76;100989.41;683008;29;904;-67
2021/06/21 01:51:18;;;;;;;6.00;3.97;;;;;;;14.61;72.51;100985.97;683016;29;919;-67
2021/06/21 01:51:40;;;;;;;6.47;4.10;;;;;;;14.64;72.90;100990.25;683088;29;893;-67
2021/06/21 01:52:03;;;;;;;7.13;4.00;;;;;;;14.57;72.94;100987.09;683042;29;804;-67
2021/06/21 01:52:24;;;;;;;6.65;3.85;;;;;;;14.61;72.70;100993.91;683000;29;1178;-67
2021/06/21 01:52:50;;;;;;;6.32;3.80;;;;;;;14.61;72.35;100985.97;682748;29;1536;-67
2021/06/21 01:53:18;;;;;;;7.05;3.65;;;;;;;14.60;72.41;100984.25;683108;29;872;-67
2021/06/21 01:53:39;;;;;;;6.13;3.60;;;;;;;14.59;72.63;100982.56;683091;29;892;-67